Mississippi Star — 9HA2441 — position and weather

sailwx.info

Track history (hours):
 
Tides and Currents Weather Stations Pressure Air Temp Water Temp Dewpoint Dewpoint Depression Visibility Wind Speed Wind Dir Waves Ship Positions

Mississippi Star

Last reported at 2016-Dec-08 05:25 UTC. Time now 2016-Dec-08 06:08 UTC.
Position N 57°41' E 011°52'.

Length 128 m; draft 6.3 m.

Type: Ship. MMSI: 248621000.

Date/timePositionNaut miles runAvg speedWind from/ knotsBaromVisibWave heightAir tempDewpointWater temp
2016-Dec-08 05:25N 57°41' E 011°52'0 0.3
2016-Dec-08 04:33N 57°41' E 011°52'9 8.9
2016-Dec-08 03:34N 57°35' E 011°39'2 1.7
2016-Dec-08 02:31N 57°34' E 011°41'0 0.0
2016-Dec-08 01:31N 57°34' E 011°41'0 0.0
2016-Dec-08 00:31N 57°34' E 011°41'0 0.0
2016-Dec-07 23:31N 57°34' E 011°41'0 0.0
2016-Dec-07 22:31N 57°34' E 011°41'0 0.0
2016-Dec-07 21:31N 57°34' E 011°41'0 0.0
2016-Dec-07 20:31N 57°34' E 011°41'0 0.0
2016-Dec-07 19:31N 57°34' E 011°41'0 0.0
2016-Dec-07 18:31N 57°34' E 011°41'0 0.0
2016-Dec-07 17:31N 57°34' E 011°41'0 0.0
2016-Dec-07 16:31N 57°34' E 011°41'0 0.0
2016-Dec-07 15:31N 57°34' E 011°41'0 0.0
2016-Dec-07 14:31N 57°34' E 011°40'0 0.0
2016-Dec-07 13:31N 57°34' E 011°40'0 0.0
2016-Dec-07 12:31N 57°34' E 011°40'0 0.0
2016-Dec-07 11:31N 57°34' E 011°40'0 0.0
2016-Dec-07 10:31N 57°34' E 011°40'0 0.0
2016-Dec-07 09:31N 57°34' E 011°40'0 0.0
2016-Dec-07 08:31N 57°34' E 011°40'0 0.0
2016-Dec-07 07:31N 57°34' E 011°41'0 0.0
2016-Dec-07 06:31N 57°34' E 011°41'0 0.0
2016-Dec-07 05:31N 57°34' E 011°41'0 0.0
2016-Dec-07 04:28N 57°34' E 011°41'0 0.0
2016-Dec-07 03:28N 57°34' E 011°41'0 0.0
2016-Dec-07 02:31N 57°34' E 011°41'0 0.0
2016-Dec-07 01:28N 57°34' E 011°41'0 0.1
2016-Dec-07 00:33N 57°34' E 011°40'10 9.8
2016-Dec-06 23:33N 57°38' E 011°24'1212.2
2016-Dec-06 22:33N 57°45' E 011°06'1212.2
2016-Dec-06 21:33N 57°52' E 010°47'1312.5
2016-Dec-06 20:33N 57°52' E 010°23'2612.4
2016-Dec-06 18:30N 57°46' E 009°37'1313.1
2016-Dec-06 17:32N 57°39' E 009°17'1312.9
2016-Dec-06 16:33N 57°33' E 008°57'24812.3
2016-Dec-05 20:28N 54°02' E 005°05'1212.5
2016-Dec-05 19:30N 53°50' E 004°58'1212.5
2016-Dec-05 18:32N 53°39' E 004°50'1212.4
2016-Dec-05 17:33N 53°28' E 004°43'1212.1
2016-Dec-05 16:33N 53°17' E 004°35'1212.0
2016-Dec-05 15:33N 53°06' E 004°26'1211.8
2016-Dec-05 14:33N 52°55' E 004°17'1211.7
2016-Dec-05 13:33N 52°45' E 004°08'1111.3
2016-Dec-05 12:33N 52°34' E 004°07'1111.4
2016-Dec-05 11:33N 52°29' E 004°24'8 7.6
2016-Dec-05 10:34N 52°28' E 004°37'6 6.2
2016-Dec-05 09:34N 52°26' E 004°46'2 1.6
2016-Dec-05 08:33N 52°24' E 004°47'0 0.0
2016-Dec-04 10:32N 52°24' E 004°47'1 1.1
2016-Dec-04 09:34N 52°25' E 004°46'6 6.3
2016-Dec-04 08:33N 52°28' E 004°37'3 3.3
2016-Dec-04 07:34N 52°28' E 004°32'10 9.9
2016-Dec-04 06:33N 52°29' E 004°15'8 7.4
2016-Dec-04 05:32N 52°27' E 004°03'0 0.0
2016-Dec-04 04:29N 52°27' E 004°03'0 0.1
2016-Dec-04 03:32N 52°27' E 004°03'0 0.0
2016-Dec-04 02:32N 52°27' E 004°03'0 0.0
2016-Dec-04 01:32N 52°27' E 004°03'0 0.0
2016-Dec-04 00:32N 52°27' E 004°03'0 0.0
2016-Dec-03 23:32N 52°27' E 004°03'0 0.0
2016-Dec-03 22:32N 52°27' E 004°03'0 0.0
2016-Dec-03 21:32N 52°27' E 004°03'0 0.0
2016-Dec-03 20:29N 52°27' E 004°03'0 0.1
2016-Dec-03 19:33N 52°27' E 004°03'10 9.5
2016-Dec-03 18:33N 52°25' E 003°48'5413.0
2016-Dec-03 14:22N 51°49' E 002°42'1012.8
2016-Dec-03 13:33N 51°41' E 002°31'1212.3
2016-Dec-03 12:33N 51°32' E 002°18'1111.5
2016-Dec-03 11:33N 51°22' E 002°10'1010.4
2016-Dec-03 10:34N 51°13' E 002°01'10 9.7
2016-Dec-03 09:33N 51°07' E 001°49'9 9.3
2016-Dec-03 08:33N 51°01' E 001°38'10 9.6
2016-Dec-03 07:33N 50°54' E 001°28'4210.0
2016-Dec-03 03:24N 50°26' E 000°38'2010.8
2016-Dec-03 01:32N 50°21' E 000°07'10 9.9
2016-Dec-03 00:33N 50°23' W 000°07'1212.2
2016-Dec-02 23:33N 50°29' W 000°23'1312.9
2016-Dec-02 22:34N 50°35' W 000°41'1313.1
2016-Dec-02 21:33N 50°43' W 000°59'1313.2
2016-Dec-02 20:34N 50°47' W 001°18'4 3.8
2016-Dec-02 19:33N 50°51' W 001°20'0 0.0
2016-Dec-01 01:33N 50°51' W 001°20'7 6.8
2016-Dec-01 00:33N 50°47' W 001°11'7 6.4
2016-Nov-30 23:32N 50°43' W 001°03'0 0.0
2016-Nov-30 22:32N 50°42' W 001°03'0 0.0
2016-Nov-30 21:32N 50°42' W 001°03'0 0.1
2016-Nov-30 20:32N 50°42' W 001°03'0 0.0
2016-Nov-30 19:32N 50°42' W 001°03'0 0.1
2016-Nov-30 18:32N 50°43' W 001°03'0 0.0
2016-Nov-30 17:32N 50°43' W 001°03'0 0.1
2016-Nov-30 16:32N 50°42' W 001°03'0 0.0
2016-Nov-30 15:32N 50°42' W 001°03'0 0.0
2016-Nov-30 14:32N 50°42' W 001°03'0 0.1
2016-Nov-30 13:32N 50°42' W 001°03'0 0.0
2016-Nov-30 12:32N 50°43' W 001°03'0 0.0
2016-Nov-30 11:32N 50°42' W 001°03'0 0.0
2016-Nov-30 10:32N 50°42' W 001°03'0 0.0
2016-Nov-30 09:32N 50°42' W 001°03'0 0.1
2016-Nov-30 08:32N 50°42' W 001°03'0 0.0
2016-Nov-30 07:32N 50°42' W 001°03'0 0.1
2016-Nov-30 06:32N 50°42' W 001°03'0 0.1
2016-Nov-30 05:32N 50°43' W 001°03'0 0.1
2016-Nov-30 04:32N 50°42' W 001°03'5 5.5
2016-Nov-30 03:33N 50°41' W 000°55'9 9.4
2016-Nov-30 02:34N 50°32' W 000°49'1410.8
2016-Nov-30 01:18N 50°23' W 000°33'911.6
2016-Nov-30 00:33N 50°26' W 000°20'1110.7
2016-Nov-29 23:34N 50°28' W 000°04'9 9.3
2016-Nov-29 22:33N 50°29' E 000°11'8 8.4
2016-Nov-29 21:33N 50°33' E 000°23'21 8.4
2016-Nov-29 19:07N 50°42' E 000°51'610.9
2016-Nov-29 18:32N 50°46' E 000°60'1111.3
2016-Nov-29 17:33N 50°52' E 001°14'1111.5
2016-Nov-29 16:34N 51°01' E 001°26'1110.7
2016-Nov-29 15:33N 51°08' E 001°38'1313.3
2016-Nov-29 14:34N 51°22' E 001°36'1110.9
2016-Nov-29 13:32N 51°32' E 001°31'0 0.1
2016-Nov-29 12:32N 51°32' E 001°31'0 0.0
2016-Nov-29 11:32N 51°32' E 001°31'0 0.0
2016-Nov-29 10:32N 51°32' E 001°31'0 0.0
2016-Nov-29 09:32N 51°32' E 001°31'0 0.0
2016-Nov-29 08:32N 51°32' E 001°31'0 0.0
2016-Nov-29 07:32N 51°32' E 001°31'0 0.0
2016-Nov-29 06:32N 51°32' E 001°31'0 0.0
2016-Nov-29 05:32N 51°32' E 001°31'0 0.0
2016-Nov-29 04:32N 51°32' E 001°31'0 0.1
2016-Nov-29 03:32N 51°32' E 001°31'0 0.0
2016-Nov-29 02:32N 51°32' E 001°31'0 0.0
2016-Nov-29 01:31N 51°32' E 001°31'0 0.0
2016-Nov-29 00:28N 51°32' E 001°31'0 0.0
2016-Nov-28 23:32N 51°32' E 001°31'0 0.0
2016-Nov-28 22:31N 51°32' E 001°31'0 0.0
2016-Nov-28 21:31N 51°32' E 001°31'0 0.0
2016-Nov-28 20:32N 51°32' E 001°31'0 0.0
2016-Nov-28 19:31N 51°32' E 001°31'0 0.0
2016-Nov-28 18:31N 51°32' E 001°31'0 0.0
2016-Nov-28 17:32N 51°32' E 001°31'0 0.0
2016-Nov-28 16:32N 51°32' E 001°31'0 0.0
2016-Nov-28 15:31N 51°32' E 001°31'0 0.0
2016-Nov-28 14:31N 51°32' E 001°31'0 0.1
2016-Nov-28 13:28N 51°32' E 001°31'0 0.0
2016-Nov-28 12:31N 51°32' E 001°31'0 0.0
2016-Nov-28 11:31N 51°32' E 001°31'0 0.0
2016-Nov-28 10:31N 51°32' E 001°31'0 0.0
2016-Nov-28 09:31N 51°32' E 001°31'0 0.0
2016-Nov-28 08:31N 51°32' E 001°31'0 0.0
2016-Nov-28 07:31N 51°32' E 001°31'0 0.0
2016-Nov-28 06:31N 51°32' E 001°31'0 0.0
2016-Nov-28 05:31N 51°32' E 001°31'  
Track history (hours):
 
Tides and Currents Weather Stations Pressure Air Temp Water Temp Dewpoint Dewpoint Depression Visibility Wind Speed Wind Dir Waves Ship Positions

Mississippi Star

Last reported at 2016-Dec-08 05:25 UTC. Time now 2016-Dec-08 06:08 UTC.
Position N 57°41' E 011°52'.

Length 128 m; draft 6.3 m.

Type: Ship. MMSI: 248621000.

Date/timePositionNaut miles runAvg speedWind from/ knotsBaromVisibWave heightAir tempDewpointWater temp
2016-Dec-08 05:25N 57°41' E 011°52'0 0.3
2016-Dec-08 04:33N 57°41' E 011°52'9 8.9
2016-Dec-08 03:34N 57°35' E 011°39'2 1.7
2016-Dec-08 02:31N 57°34' E 011°41'0 0.0
2016-Dec-08 01:31N 57°34' E 011°41'0 0.0
2016-Dec-08 00:31N 57°34' E 011°41'0 0.0
2016-Dec-07 23:31N 57°34' E 011°41'0 0.0
2016-Dec-07 22:31N 57°34' E 011°41'0 0.0
2016-Dec-07 21:31N 57°34' E 011°41'0 0.0
2016-Dec-07 20:31N 57°34' E 011°41'0 0.0
2016-Dec-07 19:31N 57°34' E 011°41'0 0.0
2016-Dec-07 18:31N 57°34' E 011°41'0 0.0
2016-Dec-07 17:31N 57°34' E 011°41'0 0.0
2016-Dec-07 16:31N 57°34' E 011°41'0 0.0
2016-Dec-07 15:31N 57°34' E 011°41'0 0.0
2016-Dec-07 14:31N 57°34' E 011°40'0 0.0
2016-Dec-07 13:31N 57°34' E 011°40'0 0.0
2016-Dec-07 12:31N 57°34' E 011°40'0 0.0
2016-Dec-07 11:31N 57°34' E 011°40'0 0.0
2016-Dec-07 10:31N 57°34' E 011°40'0 0.0
2016-Dec-07 09:31N 57°34' E 011°40'0 0.0
2016-Dec-07 08:31N 57°34' E 011°40'0 0.0
2016-Dec-07 07:31N 57°34' E 011°41'0 0.0
2016-Dec-07 06:31N 57°34' E 011°41'0 0.0
2016-Dec-07 05:31N 57°34' E 011°41'0 0.0
2016-Dec-07 04:28N 57°34' E 011°41'0 0.0
2016-Dec-07 03:28N 57°34' E 011°41'0 0.0
2016-Dec-07 02:31N 57°34' E 011°41'0 0.0
2016-Dec-07 01:28N 57°34' E 011°41'0 0.1
2016-Dec-07 00:33N 57°34' E 011°40'10 9.8
2016-Dec-06 23:33N 57°38' E 011°24'1212.2
2016-Dec-06 22:33N 57°45' E 011°06'1212.2
2016-Dec-06 21:33N 57°52' E 010°47'1312.5
2016-Dec-06 20:33N 57°52' E 010°23'2612.4
2016-Dec-06 18:30N 57°46' E 009°37'1313.1
2016-Dec-06 17:32N 57°39' E 009°17'1312.9
2016-Dec-06 16:33N 57°33' E 008°57'24812.3
2016-Dec-05 20:28N 54°02' E 005°05'1212.5
2016-Dec-05 19:30N 53°50' E 004°58'1212.5
2016-Dec-05 18:32N 53°39' E 004°50'1212.4
2016-Dec-05 17:33N 53°28' E 004°43'1212.1
2016-Dec-05 16:33N 53°17' E 004°35'1212.0
2016-Dec-05 15:33N 53°06' E 004°26'1211.8
2016-Dec-05 14:33N 52°55' E 004°17'1211.7
2016-Dec-05 13:33N 52°45' E 004°08'1111.3
2016-Dec-05 12:33N 52°34' E 004°07'1111.4
2016-Dec-05 11:33N 52°29' E 004°24'8 7.6
2016-Dec-05 10:34N 52°28' E 004°37'6 6.2
2016-Dec-05 09:34N 52°26' E 004°46'2 1.6
2016-Dec-05 08:33N 52°24' E 004°47'0 0.0
2016-Dec-04 10:32N 52°24' E 004°47'1 1.1
2016-Dec-04 09:34N 52°25' E 004°46'6 6.3
2016-Dec-04 08:33N 52°28' E 004°37'3 3.3
2016-Dec-04 07:34N 52°28' E 004°32'10 9.9
2016-Dec-04 06:33N 52°29' E 004°15'8 7.4
2016-Dec-04 05:32N 52°27' E 004°03'0 0.0
2016-Dec-04 04:29N 52°27' E 004°03'0 0.1
2016-Dec-04 03:32N 52°27' E 004°03'0 0.0
2016-Dec-04 02:32N 52°27' E 004°03'0 0.0
2016-Dec-04 01:32N 52°27' E 004°03'0 0.0
2016-Dec-04 00:32N 52°27' E 004°03'0 0.0
2016-Dec-03 23:32N 52°27' E 004°03'0 0.0
2016-Dec-03 22:32N 52°27' E 004°03'0 0.0
2016-Dec-03 21:32N 52°27' E 004°03'0 0.0
2016-Dec-03 20:29N 52°27' E 004°03'0 0.1
2016-Dec-03 19:33N 52°27' E 004°03'10 9.5
2016-Dec-03 18:33N 52°25' E 003°48'5413.0
2016-Dec-03 14:22N 51°49' E 002°42'1012.8
2016-Dec-03 13:33N 51°41' E 002°31'1212.3
2016-Dec-03 12:33N 51°32' E 002°18'1111.5
2016-Dec-03 11:33N 51°22' E 002°10'1010.4
2016-Dec-03 10:34N 51°13' E 002°01'10 9.7
2016-Dec-03 09:33N 51°07' E 001°49'9 9.3
2016-Dec-03 08:33N 51°01' E 001°38'10 9.6
2016-Dec-03 07:33N 50°54' E 001°28'4210.0
2016-Dec-03 03:24N 50°26' E 000°38'2010.8
2016-Dec-03 01:32N 50°21' E 000°07'10 9.9
2016-Dec-03 00:33N 50°23' W 000°07'1212.2
2016-Dec-02 23:33N 50°29' W 000°23'1312.9
2016-Dec-02 22:34N 50°35' W 000°41'1313.1
2016-Dec-02 21:33N 50°43' W 000°59'1313.2
2016-Dec-02 20:34N 50°47' W 001°18'4 3.8
2016-Dec-02 19:33N 50°51' W 001°20'0 0.0
2016-Dec-01 01:33N 50°51' W 001°20'7 6.8
2016-Dec-01 00:33N 50°47' W 001°11'7 6.4
2016-Nov-30 23:32N 50°43' W 001°03'0 0.0
2016-Nov-30 22:32N 50°42' W 001°03'0 0.0
2016-Nov-30 21:32N 50°42' W 001°03'0 0.1
2016-Nov-30 20:32N 50°42' W 001°03'0 0.0
2016-Nov-30 19:32N 50°42' W 001°03'0 0.1
2016-Nov-30 18:32N 50°43' W 001°03'0 0.0
2016-Nov-30 17:32N 50°43' W 001°03'0 0.1
2016-Nov-30 16:32N 50°42' W 001°03'0 0.0
2016-Nov-30 15:32N 50°42' W 001°03'0 0.0
2016-Nov-30 14:32N 50°42' W 001°03'0 0.1
2016-Nov-30 13:32N 50°42' W 001°03'0 0.0
2016-Nov-30 12:32N 50°43' W 001°03'0 0.0
2016-Nov-30 11:32N 50°42' W 001°03'0 0.0
2016-Nov-30 10:32N 50°42' W 001°03'0 0.0
2016-Nov-30 09:32N 50°42' W 001°03'0 0.1
2016-Nov-30 08:32N 50°42' W 001°03'0 0.0
2016-Nov-30 07:32N 50°42' W 001°03'0 0.1
2016-Nov-30 06:32N 50°42' W 001°03'0 0.1
2016-Nov-30 05:32N 50°43' W 001°03'0 0.1
2016-Nov-30 04:32N 50°42' W 001°03'5 5.5
2016-Nov-30 03:33N 50°41' W 000°55'9 9.4
2016-Nov-30 02:34N 50°32' W 000°49'1410.8
2016-Nov-30 01:18N 50°23' W 000°33'911.6
2016-Nov-30 00:33N 50°26' W 000°20'1110.7
2016-Nov-29 23:34N 50°28' W 000°04'9 9.3
2016-Nov-29 22:33N 50°29' E 000°11'8 8.4
2016-Nov-29 21:33N 50°33' E 000°23'21 8.4
2016-Nov-29 19:07N 50°42' E 000°51'610.9
2016-Nov-29 18:32N 50°46' E 000°60'1111.3
2016-Nov-29 17:33N 50°52' E 001°14'1111.5
2016-Nov-29 16:34N 51°01' E 001°26'1110.7
2016-Nov-29 15:33N 51°08' E 001°38'1313.3
2016-Nov-29 14:34N 51°22' E 001°36'1110.9
2016-Nov-29 13:32N 51°32' E 001°31'0 0.1
2016-Nov-29 12:32N 51°32' E 001°31'0 0.0
2016-Nov-29 11:32N 51°32' E 001°31'0 0.0
2016-Nov-29 10:32N 51°32' E 001°31'0 0.0
2016-Nov-29 09:32N 51°32' E 001°31'0 0.0
2016-Nov-29 08:32N 51°32' E 001°31'0 0.0
2016-Nov-29 07:32N 51°32' E 001°31'0 0.0
2016-Nov-29 06:32N 51°32' E 001°31'0 0.0
2016-Nov-29 05:32N 51°32' E 001°31'0 0.0
2016-Nov-29 04:32N 51°32' E 001°31'0 0.1
2016-Nov-29 03:32N 51°32' E 001°31'0 0.0
2016-Nov-29 02:32N 51°32' E 001°31'0 0.0
2016-Nov-29 01:31N 51°32' E 001°31'0 0.0
2016-Nov-29 00:28N 51°32' E 001°31'0 0.0
2016-Nov-28 23:32N 51°32' E 001°31'0 0.0
2016-Nov-28 22:31N 51°32' E 001°31'0 0.0
2016-Nov-28 21:31N 51°32' E 001°31'0 0.0
2016-Nov-28 20:32N 51°32' E 001°31'0 0.0
2016-Nov-28 19:31N 51°32' E 001°31'0 0.0
2016-Nov-28 18:31N 51°32' E 001°31'0 0.0
2016-Nov-28 17:32N 51°32' E 001°31'0 0.0
2016-Nov-28 16:32N 51°32' E 001°31'0 0.0
2016-Nov-28 15:31N 51°32' E 001°31'0 0.0
2016-Nov-28 14:31N 51°32' E 001°31'0 0.1
2016-Nov-28 13:28N 51°32' E 001°31'0 0.0
2016-Nov-28 12:31N 51°32' E 001°31'0 0.0
2016-Nov-28 11:31N 51°32' E 001°31'0 0.0
2016-Nov-28 10:31N 51°32' E 001°31'0 0.0
2016-Nov-28 09:31N 51°32' E 001°31'0 0.0
2016-Nov-28 08:31N 51°32' E 001°31'0 0.0
2016-Nov-28 07:31N 51°32' E 001°31'0 0.0
2016-Nov-28 06:31N 51°32' E 001°31'0 0.0
2016-Nov-28 05:31N 51°32' E 001°31'  

Dump ship's entire track history